createdAt,value
2022-10-20T00:00:13.796Z,3.50
2022-10-20T00:00:46.218Z,3.27
2022-10-20T00:01:19.629Z,3.53
2022-10-20T00:01:51.634Z,3.47
2022-10-20T00:02:23.675Z,3.63
2022-10-20T00:02:55.821Z,3.73
2022-10-20T00:03:28.055Z,3.10
2022-10-20T00:04:00.035Z,3.30
2022-10-20T00:04:32.078Z,3.27
2022-10-20T00:05:04.390Z,3.00
2022-10-20T00:05:36.518Z,3.20
2022-10-20T00:06:17.529Z,3.10
2022-10-20T00:06:49.597Z,3.50
2022-10-20T00:07:22.375Z,3.20
2022-10-20T00:07:54.349Z,3.30
2022-10-20T00:08:26.395Z,3.10
2022-10-20T00:09:00.049Z,3.03
2022-10-20T00:09:32.104Z,3.10
2022-10-20T00:10:04.232Z,3.37
2022-10-20T00:10:36.319Z,3.23
2022-10-20T00:11:09.014Z,3.33
2022-10-20T00:11:41.025Z,3.10
2022-10-20T00:12:13.063Z,3.37
2022-10-20T00:12:45.115Z,3.60
2022-10-20T00:13:17.144Z,3.07
2022-10-20T00:13:50.610Z,3.20
2022-10-20T00:14:22.672Z,3.13
2022-10-20T00:14:54.782Z,3.07
2022-10-20T00:15:26.798Z,3.23
2022-10-20T00:15:59.168Z,3.47
2022-10-20T00:16:32.061Z,3.30
2022-10-20T00:17:05.480Z,3.53
2022-10-20T00:17:37.556Z,3.30
2022-10-20T00:18:09.602Z,3.43
2022-10-20T00:18:41.938Z,3.30
2022-10-20T00:19:14.004Z,2.87
2022-10-20T00:19:49.133Z,3.47
2022-10-20T00:20:21.205Z,3.60
2022-10-20T00:20:53.271Z,3.90
2022-10-20T00:21:26.676Z,3.10
2022-10-20T00:21:59.457Z,3.03
2022-10-20T00:22:32.054Z,3.03
2022-10-20T00:23:04.111Z,3.17
2022-10-20T00:23:36.222Z,3.87
2022-10-20T00:24:08.334Z,3.10
2022-10-20T00:24:40.376Z,3.30
2022-10-20T00:25:12.502Z,3.63
2022-10-20T00:25:44.472Z,3.10
2022-10-20T00:26:18.335Z,3.47
2022-10-20T00:26:50.363Z,3.50
2022-10-20T00:27:22.460Z,3.47
2022-10-20T00:27:54.674Z,3.17
2022-10-20T00:28:26.671Z,3.00
2022-10-20T00:28:58.851Z,3.90
2022-10-20T00:29:31.250Z,3.60
2022-10-20T00:30:03.522Z,3.20
2022-10-20T00:30:35.714Z,3.13
2022-10-20T00:31:07.819Z,3.10
2022-10-20T00:31:39.850Z,3.60
2022-10-20T00:32:11.851Z,3.30
2022-10-20T00:32:43.892Z,3.20
2022-10-20T00:33:15.859Z,3.63
2022-10-20T00:33:47.941Z,3.10
2022-10-20T00:34:19.961Z,2.93
2022-10-20T00:34:51.994Z,3.70
2022-10-20T00:35:24.049Z,3.67
2022-10-20T00:35:58.607Z,3.20
2022-10-20T00:36:30.722Z,3.77
2022-10-20T00:37:02.747Z,3.30
2022-10-20T00:37:34.810Z,3.47
2022-10-20T00:38:06.960Z,3.27
2022-10-20T00:38:39.015Z,3.10
2022-10-20T00:39:10.976Z,3.23
2022-10-20T00:39:42.979Z,3.23
2022-10-20T00:40:15.030Z,3.07
2022-10-20T00:40:47.088Z,3.47
2022-10-20T00:41:20.674Z,3.30
2022-10-20T00:41:52.652Z,3.30
2022-10-20T00:42:24.679Z,3.40
2022-10-20T00:42:56.704Z,3.27
2022-10-20T00:43:47.240Z,3.60
2022-10-20T00:44:37.917Z,3.20
2022-10-20T00:45:14.305Z,3.43
2022-10-20T00:45:51.457Z,3.73
2022-10-20T00:46:36.161Z,3.40
2022-10-20T00:47:19.303Z,3.23
2022-10-20T00:47:57.644Z,3.27
2022-10-20T00:48:31.090Z,3.40
2022-10-20T00:49:07.144Z,3.60
2022-10-20T00:49:39.345Z,3.10
2022-10-20T00:50:19.841Z,3.27
2022-10-20T00:50:54.005Z,3.53
2022-10-20T00:51:27.877Z,3.60
2022-10-20T00:51:59.883Z,3.50
2022-10-20T00:52:32.238Z,3.57
2022-10-20T00:53:04.565Z,3.60
2022-10-20T00:53:36.738Z,3.43
2022-10-20T00:54:10.133Z,3.07
2022-10-20T00:54:42.183Z,3.23
2022-10-20T00:55:16.556Z,3.57
2022-10-20T00:55:50.138Z,3.30
2022-10-20T00:56:23.157Z,3.37
2022-10-20T00:56:56.471Z,3.27
2022-10-20T00:57:29.667Z,3.37
2022-10-20T00:58:02.342Z,3.30
2022-10-20T00:58:35.134Z,3.20
2022-10-20T00:59:07.607Z,3.00
2022-10-20T00:59:40.086Z,3.43
2022-10-20T01:00:12.435Z,3.20
2022-10-20T01:00:45.837Z,2.97
2022-10-20T01:01:18.370Z,3.20
2022-10-20T01:01:50.482Z,3.53
2022-10-20T01:02:22.655Z,3.43
2022-10-20T01:02:55.955Z,3.43
2022-10-20T01:03:30.408Z,3.20
2022-10-20T01:04:02.461Z,3.73
2022-10-20T01:04:35.159Z,3.30
2022-10-20T01:05:08.221Z,4.23
2022-10-20T01:05:40.283Z,3.47
2022-10-20T01:06:52.983Z,3.20
2022-10-20T01:07:25.022Z,3.87
2022-10-20T01:07:57.003Z,2.97
2022-10-20T01:08:29.108Z,3.13
2022-10-20T01:09:01.370Z,3.70
2022-10-20T01:09:33.739Z,3.83
2022-10-20T01:10:06.368Z,3.50
2022-10-20T01:10:45.202Z,3.40
2022-10-20T01:11:17.729Z,3.20
2022-10-20T01:12:06.717Z,3.30
2022-10-20T01:12:53.982Z,3.00
2022-10-20T01:13:44.637Z,4.00
2022-10-20T01:14:25.516Z,3.13
2022-10-20T01:15:03.845Z,3.70
2022-10-20T01:15:44.045Z,3.40
2022-10-20T01:16:18.921Z,3.37
2022-10-20T01:16:59.095Z,3.20
2022-10-20T01:17:40.155Z,3.40
2022-10-20T01:18:13.249Z,3.03
2022-10-20T01:18:53.783Z,3.00
2022-10-20T01:19:28.565Z,3.30
2022-10-20T01:20:06.601Z,2.93
2022-10-20T01:21:04.920Z,3.50
2022-10-20T01:21:36.914Z,3.30
2022-10-20T01:22:27.438Z,3.70
2022-10-20T01:22:59.451Z,3.17
2022-10-20T01:23:55.229Z,3.30
2022-10-20T01:24:36.050Z,3.13
2022-10-20T01:25:33.846Z,3.10
2022-10-20T01:26:08.665Z,3.50
2022-10-20T01:27:02.024Z,3.23
2022-10-20T01:27:41.911Z,3.30
2022-10-20T01:28:27.124Z,3.40
2022-10-20T01:29:09.192Z,3.40
2022-10-20T01:29:59.797Z,3.30
2022-10-20T01:30:33.519Z,3.60
2022-10-20T01:31:09.665Z,3.47
2022-10-20T01:32:04.957Z,3.33
2022-10-20T01:32:43.338Z,3.53
2022-10-20T01:33:21.519Z,3.30
2022-10-20T01:33:59.805Z,3.50
2022-10-20T01:34:37.058Z,3.60
2022-10-20T01:35:18.789Z,2.90
2022-10-20T01:35:56.553Z,3.43
2022-10-20T01:36:40.644Z,3.17
2022-10-20T01:37:34.175Z,3.20
2022-10-20T01:38:30.200Z,3.40
2022-10-20T01:39:08.976Z,3.00
2022-10-20T01:39:46.203Z,3.60
2022-10-20T01:40:30.315Z,3.20
2022-10-20T01:41:06.230Z,3.10
2022-10-20T01:41:43.991Z,3.70
2022-10-20T01:42:26.297Z,3.40
2022-10-20T01:43:01.139Z,3.67
2022-10-20T01:43:35.666Z,3.40
2022-10-20T01:44:12.118Z,3.53
2022-10-20T01:44:44.384Z,3.87
2022-10-20T01:45:18.281Z,3.43
2022-10-20T01:45:52.079Z,3.60
2022-10-20T01:46:25.155Z,3.53
2022-10-20T01:46:58.613Z,3.27
2022-10-20T01:47:32.409Z,3.10
2022-10-20T01:48:06.326Z,3.53
2022-10-20T01:48:40.344Z,3.77
2022-10-20T01:49:13.969Z,3.40
2022-10-20T01:49:47.250Z,3.80
2022-10-20T01:50:19.676Z,4.00
2022-10-20T01:50:52.063Z,3.30
2022-10-20T01:51:24.406Z,3.63
2022-10-20T01:51:56.716Z,3.30
2022-10-20T01:52:29.124Z,3.80
2022-10-20T01:53:01.787Z,3.83
2022-10-20T01:53:33.837Z,3.77
2022-10-20T01:54:05.985Z,3.60
2022-10-20T01:54:38.015Z,3.57
2022-10-20T01:55:14.334Z,3.67
2022-10-20T01:55:46.549Z,3.60
2022-10-20T01:56:22.000Z,3.37
2022-10-20T01:57:12.154Z,3.60
2022-10-20T01:57:59.187Z,4.00
2022-10-20T01:58:40.121Z,3.47
2022-10-20T01:59:21.206Z,3.40
2022-10-20T01:59:58.946Z,3.67
2022-10-20T02:00:31.030Z,4.33
2022-10-20T02:01:10.514Z,3.77
2022-10-20T02:02:00.897Z,4.00
2022-10-20T02:02:38.570Z,3.33
2022-10-20T02:03:10.798Z,3.80
2022-10-20T02:03:58.009Z,3.70
2022-10-20T02:04:48.762Z,3.80
2022-10-20T02:05:34.258Z,3.73
2022-10-20T02:06:18.522Z,3.50
2022-10-20T02:07:08.225Z,4.23
2022-10-20T02:07:42.169Z,3.87
2022-10-20T02:08:21.708Z,3.70
2022-10-20T02:08:58.461Z,3.53
2022-10-20T02:09:39.462Z,3.50
2022-10-20T02:10:19.367Z,3.50
2022-10-20T02:10:52.700Z,3.83
2022-10-20T02:11:26.704Z,3.63
2022-10-20T02:12:01.738Z,3.87
2022-10-20T02:12:35.969Z,3.77
2022-10-20T02:13:10.824Z,3.80
2022-10-20T02:13:43.513Z,3.77
2022-10-20T02:14:17.366Z,4.33
2022-10-20T02:14:49.741Z,3.90
2022-10-20T02:15:24.122Z,3.77
2022-10-20T02:15:57.271Z,3.67
2022-10-20T02:16:31.978Z,3.97
2022-10-20T02:17:10.005Z,4.10
2022-10-20T02:17:42.804Z,4.07
2022-10-20T02:18:17.648Z,3.80
2022-10-20T02:18:49.927Z,3.80
2022-10-20T02:19:23.560Z,3.90
2022-10-20T02:19:55.980Z,4.03
2022-10-20T02:20:29.609Z,4.20
2022-10-20T02:21:02.729Z,4.50
2022-10-20T02:21:34.702Z,4.23
2022-10-20T02:22:07.706Z,4.40
2022-10-20T02:22:40.510Z,4.00
2022-10-20T02:23:12.541Z,4.20
2022-10-20T02:23:46.066Z,4.07
2022-10-20T02:24:18.946Z,4.07
2022-10-20T02:24:51.194Z,3.93
2022-10-20T02:25:24.120Z,4.00
2022-10-20T02:25:58.368Z,3.90
2022-10-20T02:26:34.325Z,4.10
2022-10-20T02:27:18.726Z,3.57
2022-10-20T02:27:51.557Z,3.90
2022-10-20T02:28:23.806Z,3.93
2022-10-20T02:29:00.546Z,4.17
2022-10-20T02:29:35.651Z,3.90
2022-10-20T02:30:08.944Z,3.90
2022-10-20T02:30:41.358Z,4.00
2022-10-20T02:31:13.568Z,3.80
2022-10-20T02:31:46.218Z,4.10
2022-10-20T02:32:18.380Z,3.60
2022-10-20T02:32:52.682Z,3.70
2022-10-20T02:33:24.833Z,3.93
2022-10-20T02:33:57.390Z,4.20
2022-10-20T02:34:29.411Z,4.00
2022-10-20T02:35:06.639Z,4.00
2022-10-20T02:35:42.305Z,4.40
2022-10-20T02:36:19.161Z,3.73
2022-10-20T02:36:54.805Z,3.90
2022-10-20T02:37:26.809Z,4.13
2022-10-20T02:37:59.442Z,4.33
2022-10-20T02:38:31.494Z,3.97
2022-10-20T02:39:03.562Z,5.03
2022-10-20T02:39:35.595Z,4.30
2022-10-20T02:40:07.895Z,4.30
2022-10-20T02:40:39.889Z,4.17
2022-10-20T02:41:11.907Z,3.93
2022-10-20T02:41:43.971Z,4.10
2022-10-20T02:42:17.297Z,4.30
2022-10-20T02:42:49.394Z,4.70
2022-10-20T02:43:21.435Z,4.17
2022-10-20T02:43:53.477Z,3.80
2022-10-20T02:44:25.523Z,4.13
2022-10-20T02:44:57.477Z,4.63
2022-10-20T02:45:29.474Z,4.30
2022-10-20T02:46:01.542Z,4.03
2022-10-20T02:46:33.638Z,4.07
2022-10-20T02:47:05.653Z,4.37
2022-10-20T02:47:38.069Z,4.37
2022-10-20T02:48:10.592Z,3.60
2022-10-20T02:48:42.592Z,3.97
2022-10-20T02:49:14.657Z,3.80
2022-10-20T02:49:46.696Z,3.70
2022-10-20T02:50:18.752Z,4.30
2022-10-20T02:50:50.755Z,4.10
2022-10-20T02:51:22.863Z,4.27
2022-10-20T02:51:54.854Z,3.80
2022-10-20T02:52:26.927Z,4.28
2022-10-20T02:52:58.950Z,4.00
2022-10-20T02:53:31.180Z,3.90
2022-10-20T02:54:03.173Z,4.50
2022-10-20T02:54:35.183Z,4.13
2022-10-20T02:55:07.402Z,3.97
2022-10-20T02:55:39.452Z,4.30
2022-10-20T02:56:12.149Z,4.50
2022-10-20T02:56:44.227Z,4.53
2022-10-20T02:57:16.173Z,4.70
2022-10-20T02:57:48.085Z,4.30
2022-10-20T02:58:20.082Z,4.10
2022-10-20T02:58:52.221Z,4.40
2022-10-20T02:59:24.231Z,4.87
2022-10-20T02:59:56.249Z,4.33
2022-10-20T03:00:31.044Z,3.87
2022-10-20T03:01:03.254Z,4.30
2022-10-20T03:01:35.332Z,4.40
2022-10-20T03:02:07.460Z,4.50
2022-10-20T03:02:39.561Z,4.57
2022-10-20T03:03:11.583Z,4.63
2022-10-20T03:03:43.695Z,4.20
2022-10-20T03:04:15.849Z,4.00
2022-10-20T03:04:47.933Z,4.10
2022-10-20T03:05:19.995Z,4.17
2022-10-20T03:05:52.641Z,4.03
2022-10-20T03:06:25.475Z,4.33
2022-10-20T03:06:57.452Z,4.83
2022-10-20T03:07:29.426Z,4.30
2022-10-20T03:08:01.425Z,4.90
2022-10-20T03:08:33.419Z,4.50
2022-10-20T03:09:05.658Z,4.10
2022-10-20T03:09:37.599Z,4.27
2022-10-20T03:10:09.705Z,4.30
2022-10-20T03:10:42.721Z,4.13
2022-10-20T03:11:14.754Z,4.35
2022-10-20T03:11:46.811Z,4.80
2022-10-20T03:12:18.843Z,3.67
2022-10-20T03:12:50.863Z,4.27
2022-10-20T03:13:22.857Z,4.13
2022-10-20T03:13:54.915Z,4.40
2022-10-20T03:14:26.919Z,3.90
2022-10-20T03:14:58.945Z,4.20
2022-10-20T03:15:31.061Z,4.27
2022-10-20T03:16:03.111Z,4.00
2022-10-20T03:16:35.155Z,3.87
2022-10-20T03:17:07.143Z,4.07
2022-10-20T03:17:39.318Z,4.30
2022-10-20T03:18:11.434Z,4.17
2022-10-20T03:18:43.399Z,4.30
2022-10-20T03:19:15.505Z,4.27
2022-10-20T03:19:47.545Z,3.97
2022-10-20T03:20:19.637Z,3.77
2022-10-20T03:20:52.236Z,4.10
2022-10-20T03:21:24.287Z,4.20
2022-10-20T03:21:56.283Z,3.95
2022-10-20T03:23:01.600Z,4.50
2022-10-20T03:23:33.641Z,4.20
2022-10-20T03:24:05.810Z,4.07
2022-10-20T03:24:37.889Z,3.43
2022-10-20T03:25:09.881Z,3.70
2022-10-20T03:25:41.906Z,3.97
2022-10-20T03:26:13.993Z,3.70
2022-10-20T03:26:46.006Z,4.50
2022-10-20T03:27:18.031Z,4.20
2022-10-20T03:27:50.072Z,3.47
2022-10-20T03:28:22.006Z,3.57
2022-10-20T03:28:53.945Z,3.83
2022-10-20T03:29:25.945Z,3.83
2022-10-20T03:29:57.992Z,4.30
2022-10-20T03:30:30.028Z,4.00
2022-10-20T03:31:02.080Z,3.37
2022-10-20T03:31:34.085Z,3.57
2022-10-20T03:32:06.088Z,3.80
2022-10-20T03:32:38.432Z,3.73
2022-10-20T03:33:10.724Z,3.93
2022-10-20T03:33:42.777Z,3.57
2022-10-20T03:34:14.847Z,3.80
2022-10-20T03:34:46.872Z,3.57
2022-10-20T03:35:19.349Z,3.43
2022-10-20T03:35:51.527Z,3.80
2022-10-20T03:36:23.743Z,3.53
2022-10-20T03:36:55.971Z,3.53
2022-10-20T03:37:27.928Z,3.90
2022-10-20T03:37:59.914Z,3.50
2022-10-20T03:38:32.018Z,3.80
2022-10-20T03:39:04.154Z,3.40
2022-10-20T03:39:36.193Z,3.87
2022-10-20T03:40:08.457Z,3.53
2022-10-20T03:40:40.453Z,3.20
2022-10-20T03:41:12.649Z,3.30
2022-10-20T03:41:44.598Z,3.70
2022-10-20T03:42:16.570Z,3.50
2022-10-20T03:42:48.598Z,3.47
2022-10-20T03:43:20.642Z,3.73
2022-10-20T03:43:52.686Z,3.80
2022-10-20T03:44:24.908Z,3.43
2022-10-20T03:44:56.914Z,3.70
2022-10-20T03:45:29.000Z,3.33
2022-10-20T03:46:02.451Z,3.57
2022-10-20T03:46:34.405Z,3.17
2022-10-20T03:47:06.597Z,3.53
2022-10-20T03:47:38.553Z,3.60
2022-10-20T03:48:11.372Z,4.00
2022-10-20T03:48:43.396Z,3.47
2022-10-20T03:49:15.457Z,3.30
2022-10-20T03:49:48.028Z,3.57
2022-10-20T03:50:19.998Z,3.67
2022-10-20T03:50:52.003Z,3.33
2022-10-20T03:51:24.074Z,3.47
2022-10-20T03:51:56.181Z,3.30
2022-10-20T03:52:28.175Z,3.50
2022-10-20T03:53:00.217Z,3.47
2022-10-20T03:53:32.885Z,3.60
2022-10-20T03:54:04.892Z,3.60
2022-10-20T03:54:36.941Z,3.37
2022-10-20T03:55:09.110Z,3.57
2022-10-20T03:55:41.173Z,3.23
2022-10-20T03:56:15.922Z,3.60
2022-10-20T03:56:47.967Z,3.57
2022-10-20T03:57:20.683Z,3.33
2022-10-20T03:57:52.651Z,3.63
2022-10-20T03:58:24.688Z,3.60
2022-10-20T03:58:56.751Z,3.60
2022-10-20T03:59:30.530Z,3.77
2022-10-20T04:00:02.881Z,3.43
2022-10-20T04:00:43.608Z,3.30
2022-10-20T04:01:17.555Z,3.60
2022-10-20T04:01:49.758Z,3.37
2022-10-20T04:02:27.724Z,3.30
2022-10-20T04:02:59.760Z,3.43
2022-10-20T04:03:31.875Z,3.53
2022-10-20T04:04:03.886Z,3.47
2022-10-20T04:04:35.970Z,3.77
2022-10-20T04:05:08.430Z,3.20
2022-10-20T04:05:40.506Z,3.63
2022-10-20T04:06:13.592Z,4.20
2022-10-20T04:06:45.724Z,3.87
2022-10-20T04:07:17.754Z,3.30
2022-10-20T04:07:49.819Z,3.50
2022-10-20T04:08:21.851Z,3.40
2022-10-20T04:08:54.022Z,3.40
2022-10-20T04:09:26.148Z,3.27
2022-10-20T04:09:58.446Z,3.57
2022-10-20T04:10:30.476Z,3.47
2022-10-20T04:11:02.484Z,3.30
2022-10-20T04:11:34.529Z,4.00
2022-10-20T04:12:06.552Z,3.60
2022-10-20T04:12:39.102Z,3.53
2022-10-20T04:13:11.356Z,3.57
2022-10-20T04:13:43.472Z,3.63
2022-10-20T04:14:15.524Z,3.30
2022-10-20T04:14:48.094Z,3.77
2022-10-20T04:15:20.100Z,3.80
2022-10-20T04:15:52.162Z,3.60
2022-10-20T04:16:24.349Z,3.43
2022-10-20T04:16:56.403Z,3.58
2022-10-20T04:17:28.621Z,3.20
2022-10-20T04:18:00.710Z,3.37
2022-10-20T04:18:32.730Z,3.40
2022-10-20T04:19:07.044Z,3.33
2022-10-20T04:19:39.160Z,3.47
2022-10-20T04:20:11.461Z,3.27
2022-10-20T04:20:44.575Z,3.27
2022-10-20T04:21:16.851Z,3.10
2022-10-20T04:21:48.870Z,3.83
2022-10-20T04:22:20.968Z,3.77
2022-10-20T04:22:53.015Z,3.67
2022-10-20T04:23:25.366Z,3.30
2022-10-20T04:23:57.375Z,3.57
2022-10-20T04:24:29.386Z,3.23
2022-10-20T04:25:01.479Z,3.37
2022-10-20T04:25:33.502Z,3.23
2022-10-20T04:26:09.440Z,3.27
2022-10-20T04:26:41.539Z,3.10
2022-10-20T04:27:13.607Z,3.40
2022-10-20T04:27:45.713Z,3.50
2022-10-20T04:28:18.969Z,3.07
2022-10-20T04:28:50.938Z,3.67
2022-10-20T04:29:23.308Z,3.10
2022-10-20T04:29:55.293Z,3.53
2022-10-20T04:30:27.301Z,3.37
2022-10-20T04:31:00.000Z,3.40
2022-10-20T04:31:32.044Z,3.27
2022-10-20T04:32:04.239Z,3.00
2022-10-20T04:32:36.300Z,2.77
2022-10-20T04:33:08.381Z,3.10
2022-10-20T04:33:40.415Z,2.93
2022-10-20T04:34:12.513Z,2.73
2022-10-20T04:34:44.533Z,3.10
2022-10-20T04:35:17.152Z,3.00
2022-10-20T04:36:21.184Z,3.00
2022-10-20T04:36:53.248Z,3.20
2022-10-20T04:37:25.274Z,3.23
2022-10-20T04:37:57.293Z,3.10
2022-10-20T04:38:29.909Z,3.50
2022-10-20T04:39:01.935Z,3.50
2022-10-20T04:39:33.924Z,3.83
2022-10-20T04:40:06.264Z,3.70
2022-10-20T04:40:38.343Z,3.87
2022-10-20T04:41:10.477Z,3.77
2022-10-20T04:41:42.479Z,3.43
2022-10-20T04:42:14.430Z,4.20
2022-10-20T04:42:46.431Z,4.20
2022-10-20T04:43:18.342Z,4.67
2022-10-20T04:43:51.985Z,4.10
2022-10-20T04:44:24.139Z,4.60
2022-10-20T04:45:33.138Z,4.50
2022-10-20T04:46:08.332Z,4.23
2022-10-20T04:46:41.101Z,4.40
2022-10-20T04:47:13.150Z,4.70
2022-10-20T04:47:45.204Z,4.93
2022-10-20T04:48:17.388Z,4.80
2022-10-20T04:48:49.379Z,4.77
2022-10-20T04:49:21.478Z,5.15
2022-10-20T04:49:53.497Z,5.23
2022-10-20T04:50:25.572Z,5.33
2022-10-20T04:51:12.969Z,4.73
2022-10-20T04:51:45.239Z,5.87
2022-10-20T04:52:17.446Z,5.23
2022-10-20T04:52:49.489Z,5.40
2022-10-20T04:53:21.439Z,5.60
2022-10-20T04:53:53.903Z,5.30
2022-10-20T04:54:25.991Z,5.73
2022-10-20T04:54:57.924Z,5.10
2022-10-20T04:55:30.042Z,5.60
2022-10-20T04:56:02.352Z,4.53
2022-10-20T04:56:34.420Z,5.20
2022-10-20T04:57:06.514Z,5.60
2022-10-20T04:57:38.675Z,5.87
2022-10-20T04:58:10.974Z,5.27
2022-10-20T04:58:42.970Z,5.03
2022-10-20T04:59:15.066Z,5.47
2022-10-20T04:59:47.026Z,5.53
2022-10-20T05:00:19.031Z,5.33
2022-10-20T05:00:51.473Z,5.27
2022-10-20T05:01:24.917Z,5.20
2022-10-20T05:01:57.025Z,4.90
2022-10-20T05:02:30.085Z,5.40
2022-10-20T05:03:02.154Z,5.40
2022-10-20T05:03:34.618Z,5.27
2022-10-20T05:04:06.623Z,5.13
2022-10-20T05:04:38.667Z,5.60
2022-10-20T05:05:10.687Z,6.27
2022-10-20T05:05:42.721Z,5.80
2022-10-20T05:06:16.329Z,5.63
2022-10-20T05:06:48.737Z,5.43
2022-10-20T05:07:20.903Z,5.90
2022-10-20T05:07:52.911Z,5.73
2022-10-20T05:08:24.913Z,5.10
2022-10-20T05:08:58.354Z,5.87
2022-10-20T05:09:31.464Z,4.83
2022-10-20T05:10:04.007Z,5.97
2022-10-20T05:10:36.765Z,5.20
2022-10-20T05:11:10.059Z,5.90
2022-10-20T05:11:42.601Z,5.60
2022-10-20T05:12:51.535Z,5.53
2022-10-20T05:13:23.494Z,5.17
2022-10-20T05:13:55.587Z,5.60
2022-10-20T05:14:27.646Z,5.80
2022-10-20T05:14:59.755Z,5.43
2022-10-20T05:15:31.812Z,6.13
2022-10-20T05:16:04.541Z,5.33
2022-10-20T05:16:36.560Z,5.67
2022-10-20T05:17:10.004Z,5.40
2022-10-20T05:17:42.220Z,5.50
2022-10-20T05:18:14.193Z,6.00
2022-10-20T05:18:46.653Z,5.63
2022-10-20T05:19:18.841Z,6.10
2022-10-20T05:19:50.873Z,6.07
2022-10-20T05:20:22.908Z,5.57
2022-10-20T05:21:08.556Z,6.00
2022-10-20T05:22:18.557Z,5.83
2022-10-20T05:22:50.617Z,6.80
2022-10-20T05:23:22.688Z,6.10
2022-10-20T05:23:56.445Z,5.93
2022-10-20T05:24:30.157Z,5.80
2022-10-20T05:25:24.442Z,5.50
2022-10-20T05:25:54.277Z,5.63
2022-10-20T05:26:27.121Z,5.60
2022-10-20T05:26:59.069Z,5.67
2022-10-20T05:27:31.105Z,5.87
2022-10-20T05:28:03.167Z,5.67
2022-10-20T05:28:35.203Z,6.33
2022-10-20T05:29:08.697Z,6.13
2022-10-20T05:29:40.725Z,5.53
2022-10-20T05:30:15.697Z,5.87
2022-10-20T05:30:47.718Z,6.17
2022-10-20T05:31:21.653Z,5.53
2022-10-20T05:31:53.672Z,6.33
2022-10-20T05:32:25.712Z,5.80
2022-10-20T05:32:57.750Z,6.03
2022-10-20T05:33:29.857Z,5.80
2022-10-20T05:34:01.827Z,5.13
2022-10-20T05:34:33.774Z,5.67
2022-10-20T05:35:05.963Z,5.80
2022-10-20T05:35:37.934Z,5.33
2022-10-20T05:36:10.584Z,6.10
2022-10-20T05:36:42.563Z,5.77
2022-10-20T05:37:14.573Z,5.77
2022-10-20T05:37:46.555Z,5.90
2022-10-20T05:38:18.590Z,5.47
2022-10-20T05:38:52.141Z,5.57
2022-10-20T05:39:24.159Z,5.37
2022-10-20T05:39:56.166Z,5.63
2022-10-20T05:40:28.200Z,5.43
2022-10-20T05:41:16.930Z,5.40
2022-10-20T05:41:49.006Z,5.40
2022-10-20T05:42:21.011Z,5.43
2022-10-20T05:42:52.922Z,5.70
2022-10-20T05:43:24.863Z,5.17
2022-10-20T05:43:58.314Z,5.20
2022-10-20T05:44:30.344Z,4.93
2022-10-20T05:45:02.339Z,4.80
2022-10-20T05:45:34.294Z,5.00
2022-10-20T05:46:06.927Z,5.10
2022-10-20T05:46:41.455Z,5.20
2022-10-20T05:47:13.756Z,4.80
2022-10-20T05:47:45.700Z,5.00
2022-10-20T05:48:18.853Z,4.70
2022-10-20T05:48:52.697Z,5.00
2022-10-20T05:49:24.708Z,4.70
2022-10-20T05:49:56.685Z,4.43
2022-10-20T05:50:28.626Z,4.60
2022-10-20T05:51:08.424Z,4.57
2022-10-20T05:51:43.367Z,4.90
2022-10-20T05:52:15.310Z,4.53
2022-10-20T05:52:47.233Z,5.20
2022-10-20T05:53:19.745Z,5.13
2022-10-20T05:53:52.252Z,5.37
2022-10-20T05:54:24.238Z,4.70
2022-10-20T05:54:56.294Z,4.40
2022-10-20T05:55:28.281Z,4.60
2022-10-20T05:56:04.176Z,4.53
2022-10-20T05:56:36.131Z,4.80
2022-10-20T05:57:08.091Z,4.17
2022-10-20T05:57:40.113Z,4.50
2022-10-20T05:58:12.032Z,4.30
2022-10-20T05:58:44.691Z,4.47
2022-10-20T05:59:16.683Z,5.10
2022-10-20T05:59:48.655Z,4.30
2022-10-20T06:00:29.873Z,4.60
2022-10-20T06:01:16.850Z,4.27
2022-10-20T06:01:49.389Z,4.40
2022-10-20T06:02:22.222Z,4.57
2022-10-20T06:02:54.278Z,4.77
2022-10-20T06:03:28.313Z,4.60
2022-10-20T06:04:00.411Z,4.20
2022-10-20T06:04:32.440Z,4.37
2022-10-20T06:05:04.664Z,4.47
2022-10-20T06:05:36.592Z,4.40
2022-10-20T06:06:08.543Z,4.27
2022-10-20T06:06:40.520Z,4.10
2022-10-20T06:07:12.538Z,3.87
2022-10-20T06:07:44.962Z,3.80
2022-10-20T06:08:16.881Z,4.00
2022-10-20T06:08:50.760Z,4.10
2022-10-20T06:09:24.311Z,4.27
2022-10-20T06:09:56.306Z,4.50
2022-10-20T06:10:28.228Z,4.03
2022-10-20T06:11:05.006Z,3.97
2022-10-20T06:11:39.569Z,4.13
2022-10-20T06:12:11.723Z,4.07
2022-10-20T06:12:43.708Z,3.73
2022-10-20T06:13:15.647Z,4.67
2022-10-20T06:13:51.672Z,4.03
2022-10-20T06:14:25.957Z,4.10
2022-10-20T06:14:57.906Z,4.13
2022-10-20T06:15:29.859Z,4.30
2022-10-20T06:16:06.194Z,4.37
2022-10-20T06:16:38.209Z,3.83
2022-10-20T06:17:10.160Z,3.80
2022-10-20T06:17:42.138Z,3.93
2022-10-20T06:18:14.114Z,4.37
2022-10-20T06:18:46.096Z,4.17
2022-10-20T06:19:18.095Z,4.47
2022-10-20T06:19:51.220Z,4.00
2022-10-20T06:20:23.187Z,4.07
2022-10-20T06:21:02.107Z,3.97
2022-10-20T06:21:34.807Z,3.67
2022-10-20T06:22:07.079Z,4.00
2022-10-20T06:22:39.558Z,4.17
2022-10-20T06:23:11.690Z,4.17
2022-10-20T06:23:43.874Z,4.03
2022-10-20T06:24:17.059Z,3.85
2022-10-20T06:24:49.245Z,3.90
2022-10-20T06:25:21.263Z,3.80
2022-10-20T06:25:53.199Z,3.60
2022-10-20T06:26:26.106Z,3.80
2022-10-20T06:26:58.076Z,3.90
2022-10-20T06:27:30.007Z,3.93
2022-10-20T06:28:02.012Z,4.20
2022-10-20T06:28:34.965Z,4.23
2022-10-20T06:29:08.264Z,3.60
2022-10-20T06:29:40.267Z,4.10
2022-10-20T06:30:12.242Z,3.93
2022-10-20T06:30:44.178Z,3.80
2022-10-20T06:31:20.336Z,3.70
2022-10-20T06:31:52.514Z,4.20
2022-10-20T06:32:24.439Z,3.60
2022-10-20T06:32:56.368Z,3.90
2022-10-20T06:33:31.444Z,4.00
2022-10-20T06:34:04.559Z,3.83
2022-10-20T06:34:36.506Z,3.90
2022-10-20T06:35:08.559Z,3.80
2022-10-20T06:35:40.703Z,3.87
2022-10-20T06:36:13.272Z,4.03
2022-10-20T06:36:46.027Z,3.93
2022-10-20T06:37:17.987Z,3.97
2022-10-20T06:37:49.907Z,3.63
2022-10-20T06:38:21.829Z,3.70
2022-10-20T06:38:55.343Z,3.67
2022-10-20T06:39:27.266Z,3.60
2022-10-20T06:39:59.237Z,3.90
2022-10-20T06:40:31.189Z,3.90
2022-10-20T06:41:07.251Z,3.80
2022-10-20T06:41:39.553Z,3.83
2022-10-20T06:42:15.577Z,3.80
2022-10-20T06:42:50.506Z,3.30
2022-10-20T06:43:22.511Z,3.60
2022-10-20T06:43:58.705Z,3.73
2022-10-20T06:44:30.661Z,3.70
2022-10-20T06:45:02.807Z,3.83
2022-10-20T06:45:34.852Z,3.57
2022-10-20T06:46:08.122Z,3.30
2022-10-20T06:46:40.115Z,3.77
2022-10-20T06:47:12.115Z,4.20
2022-10-20T06:47:44.045Z,3.70
2022-10-20T06:48:16.034Z,3.30
2022-10-20T06:48:48.054Z,3.50
2022-10-20T06:49:20.292Z,3.47
2022-10-20T06:49:52.243Z,3.63
2022-10-20T06:50:24.193Z,3.73
2022-10-20T06:51:00.136Z,3.67
2022-10-20T06:51:32.732Z,3.67
2022-10-20T06:52:04.796Z,3.70
2022-10-20T06:52:37.195Z,3.70
2022-10-20T06:53:09.370Z,3.83
2022-10-20T06:53:44.319Z,3.47
2022-10-20T06:54:18.842Z,3.60
2022-10-20T06:54:51.800Z,3.83
2022-10-20T06:55:23.773Z,3.50
2022-10-20T06:55:57.231Z,3.27
2022-10-20T06:56:30.541Z,3.53
2022-10-20T06:57:02.516Z,3.70
2022-10-20T06:57:34.459Z,3.73
2022-10-20T06:58:06.420Z,4.13
2022-10-20T06:58:39.264Z,3.40
2022-10-20T06:59:11.217Z,3.77
2022-10-20T06:59:43.137Z,3.90
2022-10-20T07:00:15.419Z,3.60
2022-10-20T07:00:47.347Z,3.40
2022-10-20T07:01:23.892Z,3.47
2022-10-20T07:01:55.973Z,3.77
2022-10-20T07:02:27.907Z,3.53
2022-10-20T07:02:59.915Z,3.50
2022-10-20T07:03:32.675Z,3.60
2022-10-20T07:04:06.579Z,3.90
2022-10-20T07:04:38.543Z,3.00
2022-10-20T07:05:10.462Z,3.30
2022-10-20T07:05:42.422Z,3.47
2022-10-20T07:06:15.594Z,3.50
2022-10-20T07:06:47.728Z,3.60
2022-10-20T07:07:20.502Z,3.63
2022-10-20T07:07:52.872Z,3.53
2022-10-20T07:08:27.014Z,3.33
2022-10-20T07:08:59.529Z,3.33
2022-10-20T07:09:31.592Z,3.87
2022-10-20T07:10:03.671Z,3.80
2022-10-20T07:10:35.629Z,3.90
2022-10-20T07:11:08.866Z,3.40
2022-10-20T07:11:41.217Z,3.70
2022-10-20T07:12:13.135Z,3.97
2022-10-20T07:12:45.139Z,3.70
2022-10-20T07:13:17.116Z,3.30
2022-10-20T07:13:49.428Z,3.20
2022-10-20T07:14:21.459Z,3.40
2022-10-20T07:14:53.435Z,3.40
2022-10-20T07:15:25.363Z,3.13
2022-10-20T07:15:58.071Z,3.60
2022-10-20T07:16:31.210Z,3.73
2022-10-20T07:17:04.005Z,3.87
2022-10-20T07:17:35.939Z,3.20
2022-10-20T07:18:07.867Z,3.73
2022-10-20T07:18:40.106Z,2.80
2022-10-20T07:19:12.134Z,3.60
2022-10-20T07:19:44.147Z,3.67
2022-10-20T07:20:16.607Z,3.80
2022-10-20T07:20:48.613Z,3.33
2022-10-20T07:21:21.503Z,3.97
2022-10-20T07:21:53.445Z,3.30
2022-10-20T07:22:25.376Z,3.40
2022-10-20T07:22:58.181Z,3.80
2022-10-20T07:23:30.907Z,3.60
2022-10-20T07:24:03.673Z,3.80
2022-10-20T07:24:35.734Z,3.43
2022-10-20T07:25:07.965Z,3.77
2022-10-20T07:25:39.952Z,3.50
2022-10-20T07:26:16.152Z,3.27
2022-10-20T07:26:48.099Z,3.80
2022-10-20T07:27:20.115Z,3.00
2022-10-20T07:27:52.123Z,3.30
2022-10-20T07:28:24.476Z,3.67
2022-10-20T07:28:57.712Z,3.83
2022-10-20T07:29:29.855Z,3.30
2022-10-20T07:30:01.857Z,3.30
2022-10-20T07:30:38.044Z,3.37